sensor_id;sensor_type;location;lat;lon;timestamp;pressure;altitude;pressure_sealevel;temperature;humidity
29417;BME280;28421;51.030;4.006;2023-11-22T00:02:20;102691.63;;;4.84;100.00
29417;BME280;28421;51.030;4.006;2023-11-22T00:04:46;102680.28;;;4.80;100.00
29417;BME280;28421;51.030;4.006;2023-11-22T00:07:11;102702.53;;;4.95;100.00
29417;BME280;28421;51.030;4.006;2023-11-22T00:09:37;102692.31;;;4.87;100.00
29417;BME280;28421;51.030;4.006;2023-11-22T00:12:03;102657.69;;;4.71;100.00
29417;BME280;28421;51.030;4.006;2023-11-22T00:14:28;102679.53;;;4.78;100.00
29417;BME280;28421;51.030;4.006;2023-11-22T00:16:54;102650.63;;;4.56;100.00
29417;BME280;28421;51.030;4.006;2023-11-22T00:19:19;102664.84;;;4.55;100.00
29417;BME280;28421;51.030;4.006;2023-11-22T00:21:48;102679.28;;;4.67;100.00
29417;BME280;28421;51.030;4.006;2023-11-22T00:24:13;102706.00;;;4.81;100.00
29417;BME280;28421;51.030;4.006;2023-11-22T00:26:39;102678.75;;;4.76;100.00
29417;BME280;28421;51.030;4.006;2023-11-22T00:29:06;102669.00;;;4.61;100.00
29417;BME280;28421;51.030;4.006;2023-11-22T00:31:32;102694.66;;;4.78;100.00
29417;BME280;28421;51.030;4.006;2023-11-22T00:33:57;102689.63;;;4.57;100.00
29417;BME280;28421;51.030;4.006;2023-11-22T00:36:22;102676.56;;;4.37;100.00
29417;BME280;28421;51.030;4.006;2023-11-22T00:38:48;102673.56;;;4.27;100.00
29417;BME280;28421;51.030;4.006;2023-11-22T00:41:13;102667.81;;;4.35;100.00
29417;BME280;28421;51.030;4.006;2023-11-22T00:43:42;102661.63;;;4.34;100.00
29417;BME280;28421;51.030;4.006;2023-11-22T00:46:07;102675.63;;;4.22;100.00
29417;BME280;28421;51.030;4.006;2023-11-22T00:48:33;102687.56;;;4.31;100.00
29417;BME280;28421;51.030;4.006;2023-11-22T00:50:58;102685.84;;;4.14;100.00
29417;BME280;28421;51.030;4.006;2023-11-22T00:53:24;102716.94;;;4.29;100.00
29417;BME280;28421;51.030;4.006;2023-11-22T00:55:50;102686.78;;;4.13;100.00
29417;BME280;28421;51.030;4.006;2023-11-22T00:58:15;102682.91;;;4.18;100.00
29417;BME280;28421;51.030;4.006;2023-11-22T01:00:40;102718.41;;;4.35;100.00
29417;BME280;28421;51.030;4.006;2023-11-22T01:03:06;102700.69;;;4.18;100.00
29417;BME280;28421;51.030;4.006;2023-11-22T01:05:34;102726.59;;;4.32;100.00
29417;BME280;28421;51.030;4.006;2023-11-22T01:07:59;102700.47;;;4.07;100.00
29417;BME280;28421;51.030;4.006;2023-11-22T01:10:25;102707.41;;;4.09;100.00
29417;BME280;28421;51.030;4.006;2023-11-22T01:12:51;102694.59;;;4.00;100.00
29417;BME280;28421;51.030;4.006;2023-11-22T01:15:16;102704.56;;;3.96;100.00
29417;BME280;28421;51.030;4.006;2023-11-22T01:17:42;102740.28;;;4.08;100.00
29417;BME280;28421;51.030;4.006;2023-11-22T01:20:08;102741.59;;;4.17;100.00
29417;BME280;28421;51.030;4.006;2023-11-22T01:22:35;102733.16;;;4.09;100.00
29417;BME280;28421;51.030;4.006;2023-11-22T01:25:03;102745.91;;;4.19;100.00
29417;BME280;28421;51.030;4.006;2023-11-22T01:27:29;102728.78;;;4.08;100.00
29417;BME280;28421;51.030;4.006;2023-11-22T01:29:55;102755.50;;;4.22;100.00
29417;BME280;28421;51.030;4.006;2023-11-22T01:32:21;102758.41;;;4.17;100.00
29417;BME280;28421;51.030;4.006;2023-11-22T01:34:46;102740.44;;;4.05;100.00
29417;BME280;28421;51.030;4.006;2023-11-22T01:37:12;102752.13;;;4.03;100.00
29417;BME280;28421;51.030;4.006;2023-11-22T01:39:39;102775.44;;;4.15;100.00
29417;BME280;28421;51.030;4.006;2023-11-22T01:42:06;102755.81;;;4.00;100.00
29417;BME280;28421;51.030;4.006;2023-11-22T01:44:31;102749.63;;;3.99;100.00
29417;BME280;28421;51.030;4.006;2023-11-22T01:46:58;102775.78;;;4.24;100.00
29417;BME280;28421;51.030;4.006;2023-11-22T01:49:23;102761.69;;;4.07;100.00
29417;BME280;28421;51.030;4.006;2023-11-22T01:51:49;102760.03;;;4.04;100.00
29417;BME280;28421;51.030;4.006;2023-11-22T01:54:16;102756.91;;;3.96;100.00
29417;BME280;28421;51.030;4.006;2023-11-22T01:56:44;102753.81;;;3.88;100.00
29417;BME280;28421;51.030;4.006;2023-11-22T01:59:10;102756.22;;;3.92;100.00
29417;BME280;28421;51.030;4.006;2023-11-22T02:01:36;102762.91;;;3.84;100.00
29417;BME280;28421;51.030;4.006;2023-11-22T02:04:02;102741.41;;;3.71;100.00
29417;BME280;28421;51.030;4.006;2023-11-22T02:06:28;102750.84;;;3.77;100.00
29417;BME280;28421;51.030;4.006;2023-11-22T02:08:58;102763.44;;;3.73;100.00
29417;BME280;28421;51.030;4.006;2023-11-22T02:11:23;102754.72;;;3.54;100.00
29417;BME280;28421;51.030;4.006;2023-11-22T02:13:49;102755.59;;;3.54;100.00
29417;BME280;28421;51.030;4.006;2023-11-22T02:16:18;102761.22;;;3.48;100.00
29417;BME280;28421;51.030;4.006;2023-11-22T02:18:45;102771.38;;;3.40;100.00
29417;BME280;28421;51.030;4.006;2023-11-22T02:21:11;102777.78;;;3.36;100.00
29417;BME280;28421;51.030;4.006;2023-11-22T02:23:36;102766.06;;;3.22;100.00
29417;BME280;28421;51.030;4.006;2023-11-22T02:26:02;102778.44;;;3.23;100.00
29417;BME280;28421;51.030;4.006;2023-11-22T02:28:28;102776.06;;;3.17;100.00
29417;BME280;28421;51.030;4.006;2023-11-22T02:30:53;102767.53;;;3.11;100.00
29417;BME280;28421;51.030;4.006;2023-11-22T02:33:21;102781.38;;;3.17;100.00
29417;BME280;28421;51.030;4.006;2023-11-22T02:35:46;102780.06;;;3.09;100.00
29417;BME280;28421;51.030;4.006;2023-11-22T02:38:12;102790.59;;;3.10;100.00
29417;BME280;28421;51.030;4.006;2023-11-22T02:40:37;102781.50;;;2.97;100.00
29417;BME280;28421;51.030;4.006;2023-11-22T02:43:03;102765.47;;;2.81;100.00
29417;BME280;28421;51.030;4.006;2023-11-22T02:45:34;102781.66;;;2.94;100.00
29417;BME280;28421;51.030;4.006;2023-11-22T02:48:00;102792.59;;;2.88;100.00
29417;BME280;28421;51.030;4.006;2023-11-22T02:50:27;102803.13;;;2.89;100.00
29417;BME280;28421;51.030;4.006;2023-11-22T02:52:53;102810.47;;;2.84;100.00
29417;BME280;28421;51.030;4.006;2023-11-22T02:55:18;102777.22;;;2.58;100.00
29417;BME280;28421;51.030;4.006;2023-11-22T02:57:45;102810.94;;;2.75;100.00
29417;BME280;28421;51.030;4.006;2023-11-22T03:00:11;102792.06;;;2.62;100.00
29417;BME280;28421;51.030;4.006;2023-11-22T03:02:40;102798.44;;;2.58;100.00
29417;BME280;28421;51.030;4.006;2023-11-22T03:05:11;102828.66;;;2.74;100.00
29417;BME280;28421;51.030;4.006;2023-11-22T03:07:41;102826.59;;;2.62;100.00
29417;BME280;28421;51.030;4.006;2023-11-22T03:10:07;102814.88;;;2.47;100.00
29417;BME280;28421;51.030;4.006;2023-11-22T03:12:33;102798.88;;;2.49;100.00
29417;BME280;28421;51.030;4.006;2023-11-22T03:14:59;102764.66;;;2.43;100.00
29417;BME280;28421;51.030;4.006;2023-11-22T03:17:30;102795.22;;;2.52;100.00
29417;BME280;28421;51.030;4.006;2023-11-22T03:19:57;102827.72;;;2.57;100.00
29417;BME280;28421;51.030;4.006;2023-11-22T03:22:28;102832.13;;;2.58;100.00
29417;BME280;28421;51.030;4.006;2023-11-22T03:25:00;102774.25;;;2.27;100.00
29417;BME280;28421;51.030;4.006;2023-11-22T03:27:25;102817.97;;;2.38;100.00
29417;BME280;28421;51.030;4.006;2023-11-22T03:29:51;102815.78;;;2.28;100.00
29417;BME280;28421;51.030;4.006;2023-11-22T03:32:17;102799.34;;;2.19;100.00
29417;BME280;28421;51.030;4.006;2023-11-22T03:34:43;102815.47;;;2.15;100.00
29417;BME280;28421;51.030;4.006;2023-11-22T03:37:09;102810.50;;;2.07;100.00
29417;BME280;28421;51.030;4.006;2023-11-22T03:39:35;102836.91;;;2.10;100.00
29417;BME280;28421;51.030;4.006;2023-11-22T03:42:00;102805.06;;;1.91;100.00
29417;BME280;28421;51.030;4.006;2023-11-22T03:44:26;102803.84;;;1.98;100.00
29417;BME280;28421;51.030;4.006;2023-11-22T03:46:51;102832.94;;;2.20;100.00
29417;BME280;28421;51.030;4.006;2023-11-22T03:49:16;102805.50;;;2.01;100.00
29417;BME280;28421;51.030;4.006;2023-11-22T03:51:42;102830.41;;;2.17;100.00
29417;BME280;28421;51.030;4.006;2023-11-22T03:54:08;102853.88;;;2.27;100.00
29417;BME280;28421;51.030;4.006;2023-11-22T03:56:35;102828.84;;;1.93;100.00
29417;BME280;28421;51.030;4.006;2023-11-22T03:59:00;102854.28;;;2.17;100.00
29417;BME280;28421;51.030;4.006;2023-11-22T04:01:26;102836.28;;;2.05;100.00
29417;BME280;28421;51.030;4.006;2023-11-22T04:03:51;102827.72;;;1.98;100.00
29417;BME280;28421;51.030;4.006;2023-11-22T04:06:17;102841.53;;;2.26;100.00
29417;BME280;28421;51.030;4.006;2023-11-22T04:08:44;102858.72;;;2.37;100.00
29417;BME280;28421;51.030;4.006;2023-11-22T04:11:11;102893.69;;;2.27;100.00
29417;BME280;28421;51.030;4.006;2023-11-22T04:13:37;102895.06;;;2.35;100.00
29417;BME280;28421;51.030;4.006;2023-11-22T04:16:03;102860.78;;;2.31;100.00
29417;BME280;28421;51.030;4.006;2023-11-22T04:18:29;102886.00;;;2.41;100.00
29417;BME280;28421;51.030;4.006;2023-11-22T04:20:55;102856.66;;;2.23;100.00
29417;BME280;28421;51.030;4.006;2023-11-22T04:23:23;102878.38;;;2.33;100.00
29417;BME280;28421;51.030;4.006;2023-11-22T04:25:49;102890.06;;;2.48;100.00
29417;BME280;28421;51.030;4.006;2023-11-22T04:28:15;102928.03;;;2.70;100.00
29417;BME280;28421;51.030;4.006;2023-11-22T04:30:41;102906.81;;;2.50;100.00
29417;BME280;28421;51.030;4.006;2023-11-22T04:33:06;102910.84;;;2.59;100.00
29417;BME280;28421;51.030;4.006;2023-11-22T04:35:32;102930.38;;;2.77;100.00
29417;BME280;28421;51.030;4.006;2023-11-22T04:38:02;102931.75;;;2.85;100.00
29417;BME280;28421;51.030;4.006;2023-11-22T04:40:27;102906.25;;;2.81;100.00
29417;BME280;28421;51.030;4.006;2023-11-22T04:42:53;102914.69;;;2.91;100.00
29417;BME280;28421;51.030;4.006;2023-11-22T04:45:18;102913.72;;;2.92;100.00
29417;BME280;28421;51.030;4.006;2023-11-22T04:47:44;102906.34;;;2.80;100.00
29417;BME280;28421;51.030;4.006;2023-11-22T04:50:09;102905.19;;;2.85;100.00
29417;BME280;28421;51.030;4.006;2023-11-22T04:52:35;102941.09;;;3.13;100.00
29417;BME280;28421;51.030;4.006;2023-11-22T04:55:00;102914.50;;;2.94;100.00
29417;BME280;28421;51.030;4.006;2023-11-22T04:57:26;102916.59;;;3.06;100.00
29417;BME280;28421;51.030;4.006;2023-11-22T04:59:51;102904.31;;;3.04;100.00
29417;BME280;28421;51.030;4.006;2023-11-22T05:02:18;102894.09;;;2.94;100.00
29417;BME280;28421;51.030;4.006;2023-11-22T05:04:44;102901.41;;;2.91;100.00
29417;BME280;28421;51.030;4.006;2023-11-22T05:07:16;102895.06;;;2.93;100.00
29417;BME280;28421;51.030;4.006;2023-11-22T05:09:42;102944.53;;;3.15;100.00
29417;BME280;28421;51.030;4.006;2023-11-22T05:12:10;102939.22;;;3.15;100.00
29417;BME280;28421;51.030;4.006;2023-11-22T05:14:37;102909.06;;;2.97;100.00
29417;BME280;28421;51.030;4.006;2023-11-22T05:17:03;102925.00;;;2.97;100.00
29417;BME280;28421;51.030;4.006;2023-11-22T05:19:29;102916.75;;;2.84;100.00
29417;BME280;28421;51.030;4.006;2023-11-22T05:21:54;102912.38;;;2.83;100.00
29417;BME280;28421;51.030;4.006;2023-11-22T05:24:20;102916.03;;;2.81;100.00
29417;BME280;28421;51.030;4.006;2023-11-22T05:26:45;102902.19;;;2.74;100.00
29417;BME280;28421;51.030;4.006;2023-11-22T05:29:11;102913.88;;;2.70;100.00
29417;BME280;28421;51.030;4.006;2023-11-22T05:31:36;102913.72;;;2.54;100.00
29417;BME280;28421;51.030;4.006;2023-11-22T05:34:02;102916.38;;;2.54;100.00
29417;BME280;28421;51.030;4.006;2023-11-22T05:36:29;102914.56;;;2.55;100.00
29417;BME280;28421;51.030;4.006;2023-11-22T05:38:55;102903.94;;;2.55;100.00
29417;BME280;28421;51.030;4.006;2023-11-22T05:41:24;102908.28;;;2.57;100.00
29417;BME280;28421;51.030;4.006;2023-11-22T05:43:51;102921.66;;;2.54;100.00
29417;BME280;28421;51.030;4.006;2023-11-22T05:46:18;102895.19;;;2.32;100.00
29417;BME280;28421;51.030;4.006;2023-11-22T05:48:50;102907.34;;;2.38;100.00
29417;BME280;28421;51.030;4.006;2023-11-22T05:51:16;102890.69;;;2.34;100.00
29417;BME280;28421;51.030;4.006;2023-11-22T05:53:42;102904.41;;;2.44;100.00
29417;BME280;28421;51.030;4.006;2023-11-22T05:56:07;102868.75;;;2.31;100.00
29417;BME280;28421;51.030;4.006;2023-11-22T05:58:34;102860.00;;;2.29;100.00
29417;BME280;28421;51.030;4.006;2023-11-22T06:01:07;102900.66;;;2.49;100.00
29417;BME280;28421;51.030;4.006;2023-11-22T06:03:33;102908.81;;;2.45;100.00
29417;BME280;28421;51.030;4.006;2023-11-22T06:05:59;102890.63;;;2.36;100.00
29417;BME280;28421;51.030;4.006;2023-11-22T06:08:25;102872.44;;;2.47;100.00
29417;BME280;28421;51.030;4.006;2023-11-22T06:10:50;102894.09;;;2.57;100.00
29417;BME280;28421;51.030;4.006;2023-11-22T06:13:17;102908.09;;;2.60;100.00
29417;BME280;28421;51.030;4.006;2023-11-22T06:15:42;102900.84;;;2.45;100.00
29417;BME280;28421;51.030;4.006;2023-11-22T06:18:08;102908.28;;;2.57;100.00
29417;BME280;28421;51.030;4.006;2023-11-22T06:20:33;102915.34;;;2.57;100.00
29417;BME280;28421;51.030;4.006;2023-11-22T06:22:59;102922.09;;;2.64;100.00
29417;BME280;28421;51.030;4.006;2023-11-22T06:25:24;102939.38;;;2.74;100.00
29417;BME280;28421;51.030;4.006;2023-11-22T06:27:50;102912.50;;;2.61;100.00
29417;BME280;28421;51.030;4.006;2023-11-22T06:30:15;102926.13;;;2.72;100.00
29417;BME280;28421;51.030;4.006;2023-11-22T06:32:41;102932.97;;;2.78;100.00
29417;BME280;28421;51.030;4.006;2023-11-22T06:35:09;102926.28;;;2.69;100.00
29417;BME280;28421;51.030;4.006;2023-11-22T06:37:35;102962.50;;;2.91;100.00
29417;BME280;28421;51.030;4.006;2023-11-22T06:40:01;102936.50;;;2.79;100.00
29417;BME280;28421;51.030;4.006;2023-11-22T06:42:27;102949.69;;;2.80;100.00
29417;BME280;28421;51.030;4.006;2023-11-22T06:44:53;102991.09;;;3.05;100.00
29417;BME280;28421;51.030;4.006;2023-11-22T06:47:19;102941.44;;;2.67;100.00
29417;BME280;28421;51.030;4.006;2023-11-22T06:49:44;102954.59;;;2.89;100.00
29417;BME280;28421;51.030;4.006;2023-11-22T06:52:10;102991.00;;;3.06;100.00
29417;BME280;28421;51.030;4.006;2023-11-22T06:54:35;102971.13;;;2.96;100.00
29417;BME280;28421;51.030;4.006;2023-11-22T06:57:02;102950.84;;;2.93;100.00
29417;BME280;28421;51.030;4.006;2023-11-22T06:59:28;102953.16;;;3.01;100.00
29417;BME280;28421;51.030;4.006;2023-11-22T07:01:54;102974.00;;;3.29;100.00
29417;BME280;28421;51.030;4.006;2023-11-22T07:04:21;102919.97;;;3.10;100.00
29417;BME280;28421;51.030;4.006;2023-11-22T07:06:48;102926.38;;;3.06;100.00
29417;BME280;28421;51.030;4.006;2023-11-22T07:09:14;102927.00;;;3.11;100.00
29417;BME280;28421;51.030;4.006;2023-11-22T07:11:40;102934.13;;;3.10;100.00
29417;BME280;28421;51.030;4.006;2023-11-22T07:14:06;102921.91;;;3.06;100.00
29417;BME280;28421;51.030;4.006;2023-11-22T07:16:34;102938.22;;;3.17;100.00
29417;BME280;28421;51.030;4.006;2023-11-22T07:19:00;102922.84;;;3.05;100.00
29417;BME280;28421;51.030;4.006;2023-11-22T07:21:28;102912.94;;;3.09;100.00
29417;BME280;28421;51.030;4.006;2023-11-22T07:23:55;102922.34;;;3.16;100.00
29417;BME280;28421;51.030;4.006;2023-11-22T07:26:21;102935.97;;;3.27;100.00
29417;BME280;28421;51.030;4.006;2023-11-22T07:28:46;102940.44;;;3.27;100.00
29417;BME280;28421;51.030;4.006;2023-11-22T07:31:12;102941.50;;;3.22;100.00
29417;BME280;28421;51.030;4.006;2023-11-22T07:33:38;102951.66;;;3.33;100.00
29417;BME280;28421;51.030;4.006;2023-11-22T07:36:07;102981.56;;;3.19;100.00
29417;BME280;28421;51.030;4.006;2023-11-22T07:38:33;102951.63;;;3.14;100.00
29417;BME280;28421;51.030;4.006;2023-11-22T07:40:59;102953.66;;;3.09;100.00
29417;BME280;28421;51.030;4.006;2023-11-22T07:43:24;102968.59;;;3.31;100.00
29417;BME280;28421;51.030;4.006;2023-11-22T07:45:49;102966.44;;;3.39;100.00
29417;BME280;28421;51.030;4.006;2023-11-22T07:48:17;102950.78;;;3.33;100.00
29417;BME280;28421;51.030;4.006;2023-11-22T07:50:43;102965.31;;;3.26;100.00
29417;BME280;28421;51.030;4.006;2023-11-22T07:53:14;102952.88;;;3.26;100.00
29417;BME280;28421;51.030;4.006;2023-11-22T07:55:40;102985.31;;;3.52;100.00
29417;BME280;28421;51.030;4.006;2023-11-22T07:58:07;102959.59;;;3.52;100.00
29417;BME280;28421;51.030;4.006;2023-11-22T08:00:33;102983.28;;;3.76;100.00
29417;BME280;28421;51.030;4.006;2023-11-22T08:03:07;102990.16;;;3.80;100.00
29417;BME280;28421;51.030;4.006;2023-11-22T08:05:32;102987.66;;;3.77;100.00
29417;BME280;28421;51.030;4.006;2023-11-22T08:08:03;103007.06;;;3.79;100.00
29417;BME280;28421;51.030;4.006;2023-11-22T08:10:32;102986.03;;;3.55;100.00
29417;BME280;28421;51.030;4.006;2023-11-22T08:12:57;103016.06;;;3.76;100.00
29417;BME280;28421;51.030;4.006;2023-11-22T08:15:22;103032.84;;;3.95;100.00
29417;BME280;28421;51.030;4.006;2023-11-22T08:17:48;103035.56;;;3.94;100.00
29417;BME280;28421;51.030;4.006;2023-11-22T08:20:13;103047.03;;;3.96;100.00
29417;BME280;28421;51.030;4.006;2023-11-22T08:22:44;103042.31;;;4.01;100.00
29417;BME280;28421;51.030;4.006;2023-11-22T08:25:11;103046.19;;;4.13;100.00
29417;BME280;28421;51.030;4.006;2023-11-22T08:27:40;103032.72;;;4.16;100.00
29417;BME280;28421;51.030;4.006;2023-11-22T08:30:09;103060.16;;;4.53;100.00
29417;BME280;28421;51.030;4.006;2023-11-22T08:32:42;103037.75;;;4.39;100.00
29417;BME280;28421;51.030;4.006;2023-11-22T08:35:09;103033.31;;;4.40;100.00
29417;BME280;28421;51.030;4.006;2023-11-22T08:37:35;103055.59;;;4.72;100.00
29417;BME280;28421;51.030;4.006;2023-11-22T08:40:05;103018.78;;;4.63;100.00
29417;BME280;28421;51.030;4.006;2023-11-22T08:42:30;103019.56;;;4.65;100.00
29417;BME280;28421;51.030;4.006;2023-11-22T08:44:56;103015.50;;;4.58;100.00
29417;BME280;28421;51.030;4.006;2023-11-22T08:47:21;103013.78;;;4.57;100.00
29417;BME280;28421;51.030;4.006;2023-11-22T08:49:47;103041.34;;;4.21;100.00
29417;BME280;28421;51.030;4.006;2023-11-22T08:52:14;103012.84;;;4.23;100.00
29417;BME280;28421;51.030;4.006;2023-11-22T08:54:39;103056.88;;;4.65;100.00
29417;BME280;28421;51.030;4.006;2023-11-22T08:57:05;103047.31;;;4.61;100.00
29417;BME280;28421;51.030;4.006;2023-11-22T08:59:31;103059.34;;;4.68;100.00
29417;BME280;28421;51.030;4.006;2023-11-22T09:02:06;103050.97;;;4.76;100.00
29417;BME280;28421;51.030;4.006;2023-11-22T09:04:33;103084.69;;;5.10;100.00
29417;BME280;28421;51.030;4.006;2023-11-22T09:06:59;103060.34;;;5.00;100.00
29417;BME280;28421;51.030;4.006;2023-11-22T09:09:25;103062.75;;;5.05;100.00
29417;BME280;28421;51.030;4.006;2023-11-22T09:11:58;103059.19;;;5.21;100.00
29417;BME280;28421;51.030;4.006;2023-11-22T09:14:25;103042.66;;;5.31;100.00
29417;BME280;28421;51.030;4.006;2023-11-22T09:16:51;103069.66;;;5.58;100.00
29417;BME280;28421;51.030;4.006;2023-11-22T09:19:23;103069.06;;;5.68;100.00
29417;BME280;28421;51.030;4.006;2023-11-22T09:21:49;103051.69;;;5.77;100.00
29417;BME280;28421;51.030;4.006;2023-11-22T09:24:15;103045.81;;;5.70;100.00
29417;BME280;28421;51.030;4.006;2023-11-22T09:26:40;103058.88;;;5.91;100.00
29417;BME280;28421;51.030;4.006;2023-11-22T09:29:07;103038.50;;;5.90;100.00
29417;BME280;28421;51.030;4.006;2023-11-22T09:31:35;103054.16;;;5.96;100.00
29417;BME280;28421;51.030;4.006;2023-11-22T09:34:01;103066.66;;;6.11;100.00
29417;BME280;28421;51.030;4.006;2023-11-22T09:36:28;103057.13;;;6.21;100.00
29417;BME280;28421;51.030;4.006;2023-11-22T09:38:57;103079.34;;;6.38;100.00
29417;BME280;28421;51.030;4.006;2023-11-22T09:41:23;103068.47;;;6.41;100.00
29417;BME280;28421;51.030;4.006;2023-11-22T09:43:50;103061.25;;;6.43;100.00
29417;BME280;28421;51.030;4.006;2023-11-22T09:46:16;103068.88;;;6.49;100.00
29417;BME280;28421;51.030;4.006;2023-11-22T09:48:46;103076.59;;;6.69;100.00
29417;BME280;28421;51.030;4.006;2023-11-22T09:51:27;103047.72;;;6.60;100.00
29417;BME280;28421;51.030;4.006;2023-11-22T09:53:56;103089.50;;;6.77;100.00
29417;BME280;28421;51.030;4.006;2023-11-22T09:56:23;103082.03;;;6.82;100.00
29417;BME280;28421;51.030;4.006;2023-11-22T09:58:52;103091.19;;;6.64;100.00
29417;BME280;28421;51.030;4.006;2023-11-22T10:01:22;103064.44;;;6.64;100.00
29417;BME280;28421;51.030;4.006;2023-11-22T10:03:48;103065.13;;;6.37;100.00
29417;BME280;28421;51.030;4.006;2023-11-22T10:06:14;103108.25;;;6.61;100.00
29417;BME280;28421;51.030;4.006;2023-11-22T10:08:40;103121.06;;;6.70;100.00
29417;BME280;28421;51.030;4.006;2023-11-22T10:11:06;103087.59;;;6.49;100.00
29417;BME280;28421;51.030;4.006;2023-11-22T10:13:32;103085.97;;;6.77;100.00
29417;BME280;28421;51.030;4.006;2023-11-22T10:16:08;103082.91;;;6.83;100.00
29417;BME280;28421;51.030;4.006;2023-11-22T10:18:34;103049.38;;;6.77;100.00
29417;BME280;28421;51.030;4.006;2023-11-22T10:21:00;103076.25;;;6.90;100.00
29417;BME280;28421;51.030;4.006;2023-11-22T10:23:28;103063.63;;;6.92;100.00
29417;BME280;28421;51.030;4.006;2023-11-22T10:25:54;103060.47;;;7.00;100.00
29417;BME280;28421;51.030;4.006;2023-11-22T10:28:22;103053.13;;;6.89;100.00
29417;BME280;28421;51.030;4.006;2023-11-22T10:30:50;103043.84;;;6.94;100.00
29417;BME280;28421;51.030;4.006;2023-11-22T10:33:19;103060.66;;;6.96;100.00
29417;BME280;28421;51.030;4.006;2023-11-22T10:35:50;103072.50;;;6.92;100.00
29417;BME280;28421;51.030;4.006;2023-11-22T10:38:19;103066.41;;;6.90;100.00
29417;BME280;28421;51.030;4.006;2023-11-22T10:40:45;103079.22;;;7.14;100.00
29417;BME280;28421;51.030;4.006;2023-11-22T10:43:16;103029.66;;;6.50;100.00
29417;BME280;28421;51.030;4.006;2023-11-22T10:45:43;103055.81;;;7.03;100.00
29417;BME280;28421;51.030;4.006;2023-11-22T10:48:16;103079.31;;;7.41;100.00
29417;BME280;28421;51.030;4.006;2023-11-22T10:50:45;103067.66;;;7.28;100.00
29417;BME280;28421;51.030;4.006;2023-11-22T10:53:12;103047.38;;;7.52;100.00
29417;BME280;28421;51.030;4.006;2023-11-22T10:55:44;103019.75;;;7.52;100.00
29417;BME280;28421;51.030;4.006;2023-11-22T10:58:10;103029.31;;;7.41;100.00
29417;BME280;28421;51.030;4.006;2023-11-22T11:00:40;103023.94;;;7.56;100.00
29417;BME280;28421;51.030;4.006;2023-11-22T11:03:20;102976.31;;;7.19;100.00
29417;BME280;28421;51.030;4.006;2023-11-22T11:05:52;103023.28;;;7.52;100.00
29417;BME280;28421;51.030;4.006;2023-11-22T11:08:20;102993.47;;;7.44;100.00
29417;BME280;28421;51.030;4.006;2023-11-22T11:10:47;102983.66;;;7.30;100.00
29417;BME280;28421;51.030;4.006;2023-11-22T11:13:15;103003.06;;;7.61;100.00
29417;BME280;28421;51.030;4.006;2023-11-22T11:15:43;102980.81;;;7.46;100.00
29417;BME280;28421;51.030;4.006;2023-11-22T11:18:13;102994.38;;;7.57;100.00
29417;BME280;28421;51.030;4.006;2023-11-22T11:20:55;102974.44;;;7.48;100.00
29417;BME280;28421;51.030;4.006;2023-11-22T11:23:24;103016.97;;;7.53;100.00
29417;BME280;28421;51.030;4.006;2023-11-22T11:25:52;103001.88;;;7.38;100.00
29417;BME280;28421;51.030;4.006;2023-11-22T11:28:19;103010.09;;;7.49;100.00
29417;BME280;28421;51.030;4.006;2023-11-22T11:30:48;102987.69;;;7.23;100.00
29417;BME280;28421;51.030;4.006;2023-11-22T11:33:32;102995.22;;;7.31;100.00
29417;BME280;28421;51.030;4.006;2023-11-22T11:36:00;103016.50;;;7.32;100.00
29417;BME280;28421;51.030;4.006;2023-11-22T11:38:35;103017.00;;;7.39;100.00
29417;BME280;28421;51.030;4.006;2023-11-22T11:41:09;103018.28;;;7.60;100.00
29417;BME280;28421;51.030;4.006;2023-11-22T11:43:48;103015.81;;;7.57;100.00
29417;BME280;28421;51.030;4.006;2023-11-22T11:46:17;103000.34;;;7.34;100.00
29417;BME280;28421;51.030;4.006;2023-11-22T11:48:50;103009.63;;;7.42;100.00
29417;BME280;28421;51.030;4.006;2023-11-22T11:51:18;103027.47;;;7.56;100.00
29417;BME280;28421;51.030;4.006;2023-11-22T11:53:47;103006.34;;;7.52;100.00
29417;BME280;28421;51.030;4.006;2023-11-22T11:56:13;102992.25;;;7.62;100.00
29417;BME280;28421;51.030;4.006;2023-11-22T11:58:41;102991.31;;;7.63;100.00
29417;BME280;28421;51.030;4.006;2023-11-22T12:01:08;103001.91;;;7.23;100.00
29417;BME280;28421;51.030;4.006;2023-11-22T12:03:35;103008.31;;;7.07;100.00
29417;BME280;28421;51.030;4.006;2023-11-22T12:06:01;103000.13;;;7.10;100.00
29417;BME280;28421;51.030;4.006;2023-11-22T12:08:26;103021.19;;;7.43;100.00
29417;BME280;28421;51.030;4.006;2023-11-22T12:10:56;102993.16;;;7.48;100.00
29417;BME280;28421;51.030;4.006;2023-11-22T12:13:24;103013.72;;;7.48;100.00
29417;BME280;28421;51.030;4.006;2023-11-22T12:15:51;102960.91;;;7.23;100.00
29417;BME280;28421;51.030;4.006;2023-11-22T12:18:19;102984.44;;;7.18;100.00
29417;BME280;28421;51.030;4.006;2023-11-22T12:20:55;102978.13;;;6.62;100.00
29417;BME280;28421;51.030;4.006;2023-11-22T12:23:22;103003.47;;;6.85;100.00
29417;BME280;28421;51.030;4.006;2023-11-22T12:25:48;102986.91;;;6.92;100.00
29417;BME280;28421;51.030;4.006;2023-11-22T12:28:16;102979.97;;;6.90;100.00
29417;BME280;28421;51.030;4.006;2023-11-22T12:30:44;103003.03;;;7.34;100.00
29417;BME280;28421;51.030;4.006;2023-11-22T12:33:10;102969.25;;;7.18;100.00
29417;BME280;28421;51.030;4.006;2023-11-22T12:35:38;102939.81;;;7.18;100.00
29417;BME280;28421;51.030;4.006;2023-11-22T12:38:05;102943.59;;;7.29;100.00
29417;BME280;28421;51.030;4.006;2023-11-22T12:40:32;102941.53;;;7.19;100.00
29417;BME280;28421;51.030;4.006;2023-11-22T12:42:59;102957.75;;;7.58;100.00
29417;BME280;28421;51.030;4.006;2023-11-22T12:45:25;102932.75;;;7.44;100.00
29417;BME280;28421;51.030;4.006;2023-11-22T12:47:52;102940.09;;;7.55;100.00
29417;BME280;28421;51.030;4.006;2023-11-22T12:50:34;102959.22;;;7.49;100.00